sensor_id;sensor_type;location;lat;lon;timestamp;P1;durP1;ratioP1;P2;durP2;ratioP2
78844;SDS011;68195;50.854;2.860;2023-05-19T00:01:28;17.00;;;8.27;;
78844;SDS011;68195;50.854;2.860;2023-05-19T00:03:54;12.40;;;7.57;;
78844;SDS011;68195;50.854;2.860;2023-05-19T00:06:29;17.38;;;8.10;;
78844;SDS011;68195;50.854;2.860;2023-05-19T00:09:00;13.98;;;8.10;;
78844;SDS011;68195;50.854;2.860;2023-05-19T00:11:27;13.15;;;9.00;;
78844;SDS011;68195;50.854;2.860;2023-05-19T00:13:54;12.60;;;7.80;;
78844;SDS011;68195;50.854;2.860;2023-05-19T00:16:21;15.32;;;7.95;;
78844;SDS011;68195;50.854;2.860;2023-05-19T00:18:47;13.50;;;7.53;;
78844;SDS011;68195;50.854;2.860;2023-05-19T00:21:13;12.13;;;6.35;;
78844;SDS011;68195;50.854;2.860;2023-05-19T00:23:39;13.98;;;7.22;;
78844;SDS011;68195;50.854;2.860;2023-05-19T00:26:05;10.70;;;7.32;;
78844;SDS011;68195;50.854;2.860;2023-05-19T00:28:33;11.45;;;7.38;;
78844;SDS011;68195;50.854;2.860;2023-05-19T00:31:00;14.10;;;7.47;;
78844;SDS011;68195;50.854;2.860;2023-05-19T00:33:29;13.43;;;7.53;;
78844;SDS011;68195;50.854;2.860;2023-05-19T00:35:55;13.82;;;7.85;;
78844;SDS011;68195;50.854;2.860;2023-05-19T00:38:20;13.40;;;7.75;;
78844;SDS011;68195;50.854;2.860;2023-05-19T00:40:46;11.93;;;7.38;;
78844;SDS011;68195;50.854;2.860;2023-05-19T00:43:11;14.30;;;7.38;;
78844;SDS011;68195;50.854;2.860;2023-05-19T00:45:37;14.00;;;7.55;;
78844;SDS011;68195;50.854;2.860;2023-05-19T00:48:02;10.30;;;7.40;;
78844;SDS011;68195;50.854;2.860;2023-05-19T00:50:28;13.18;;;6.93;;
78844;SDS011;68195;50.854;2.860;2023-05-19T00:52:54;14.98;;;7.78;;
78844;SDS011;68195;50.854;2.860;2023-05-19T00:55:25;13.80;;;7.35;;
78844;SDS011;68195;50.854;2.860;2023-05-19T00:57:54;15.18;;;8.25;;
78844;SDS011;68195;50.854;2.860;2023-05-19T01:00:20;13.85;;;8.43;;
78844;SDS011;68195;50.854;2.860;2023-05-19T01:02:46;12.75;;;8.52;;
78844;SDS011;68195;50.854;2.860;2023-05-19T01:05:12;19.05;;;8.18;;
78844;SDS011;68195;50.854;2.860;2023-05-19T01:07:39;16.10;;;8.15;;
78844;SDS011;68195;50.854;2.860;2023-05-19T01:10:07;14.57;;;9.43;;
78844;SDS011;68195;50.854;2.860;2023-05-19T01:12:34;14.63;;;8.43;;
78844;SDS011;68195;50.854;2.860;2023-05-19T01:15:02;16.95;;;8.48;;
78844;SDS011;68195;50.854;2.860;2023-05-19T01:20:26;13.45;;;8.45;;
78844;SDS011;68195;50.854;2.860;2023-05-19T01:31:31;12.65;;;7.93;;
78844;SDS011;68195;50.854;2.860;2023-05-19T01:33:58;10.73;;;7.15;;
78844;SDS011;68195;50.854;2.860;2023-05-19T01:36:28;11.38;;;7.68;;
78844;SDS011;68195;50.854;2.860;2023-05-19T01:38:57;14.65;;;7.50;;
78844;SDS011;68195;50.854;2.860;2023-05-19T01:41:26;14.68;;;7.93;;
78844;SDS011;68195;50.854;2.860;2023-05-19T01:43:53;14.88;;;8.23;;
78844;SDS011;68195;50.854;2.860;2023-05-19T01:46:24;25.38;;;8.20;;
78844;SDS011;68195;50.854;2.860;2023-05-19T01:48:49;13.18;;;8.02;;
78844;SDS011;68195;50.854;2.860;2023-05-19T01:51:18;15.07;;;9.25;;
78844;SDS011;68195;50.854;2.860;2023-05-19T01:53:44;15.38;;;8.75;;
78844;SDS011;68195;50.854;2.860;2023-05-19T01:56:09;12.73;;;7.93;;
78844;SDS011;68195;50.854;2.860;2023-05-19T01:58:44;13.95;;;8.32;;
78844;SDS011;68195;50.854;2.860;2023-05-19T02:12:02;11.82;;;7.15;;
78844;SDS011;68195;50.854;2.860;2023-05-19T02:17:19;12.23;;;7.22;;
78844;SDS011;68195;50.854;2.860;2023-05-19T02:19:47;17.30;;;8.02;;
78844;SDS011;68195;50.854;2.860;2023-05-19T02:22:12;14.35;;;8.43;;
78844;SDS011;68195;50.854;2.860;2023-05-19T02:24:38;10.00;;;6.95;;
78844;SDS011;68195;50.854;2.860;2023-05-19T02:27:03;14.20;;;7.72;;
78844;SDS011;68195;50.854;2.860;2023-05-19T02:29:29;12.15;;;6.90;;
78844;SDS011;68195;50.854;2.860;2023-05-19T02:31:54;12.88;;;7.65;;
78844;SDS011;68195;50.854;2.860;2023-05-19T02:34:19;11.35;;;7.75;;
78844;SDS011;68195;50.854;2.860;2023-05-19T02:36:45;9.98;;;6.35;;
78844;SDS011;68195;50.854;2.860;2023-05-19T02:39:13;12.95;;;7.25;;
78844;SDS011;68195;50.854;2.860;2023-05-19T02:44:05;11.97;;;7.97;;
78844;SDS011;68195;50.854;2.860;2023-05-19T02:46:30;15.50;;;7.70;;
78844;SDS011;68195;50.854;2.860;2023-05-19T02:48:55;11.60;;;6.88;;
78844;SDS011;68195;50.854;2.860;2023-05-19T02:51:21;11.77;;;6.60;;
78844;SDS011;68195;50.854;2.860;2023-05-19T02:53:46;12.25;;;6.90;;
78844;SDS011;68195;50.854;2.860;2023-05-19T02:56:14;17.20;;;7.80;;
78844;SDS011;68195;50.854;2.860;2023-05-19T02:58:41;16.83;;;7.05;;
78844;SDS011;68195;50.854;2.860;2023-05-19T03:01:09;11.07;;;7.35;;
78844;SDS011;68195;50.854;2.860;2023-05-19T03:03:37;12.57;;;7.25;;
78844;SDS011;68195;50.854;2.860;2023-05-19T03:06:03;13.48;;;7.20;;
78844;SDS011;68195;50.854;2.860;2023-05-19T03:08:32;15.35;;;8.13;;
78844;SDS011;68195;50.854;2.860;2023-05-19T03:10:58;10.88;;;6.35;;
78844;SDS011;68195;50.854;2.860;2023-05-19T03:13:26;13.60;;;8.25;;
78844;SDS011;68195;50.854;2.860;2023-05-19T03:15:51;13.88;;;7.38;;
78844;SDS011;68195;50.854;2.860;2023-05-19T03:18:17;11.48;;;7.07;;
78844;SDS011;68195;50.854;2.860;2023-05-19T03:20:47;12.30;;;7.07;;
78844;SDS011;68195;50.854;2.860;2023-05-19T03:23:13;14.80;;;7.60;;
78844;SDS011;68195;50.854;2.860;2023-05-19T03:25:38;11.50;;;7.28;;
78844;SDS011;68195;50.854;2.860;2023-05-19T03:28:03;13.95;;;7.65;;
78844;SDS011;68195;50.854;2.860;2023-05-19T03:30:29;14.55;;;8.25;;
78844;SDS011;68195;50.854;2.860;2023-05-19T03:32:54;14.38;;;8.07;;
78844;SDS011;68195;50.854;2.860;2023-05-19T03:35:20;14.60;;;7.80;;
78844;SDS011;68195;50.854;2.860;2023-05-19T03:37:45;13.18;;;7.18;;
78844;SDS011;68195;50.854;2.860;2023-05-19T03:40:11;10.50;;;7.60;;
78844;SDS011;68195;50.854;2.860;2023-05-19T03:42:36;17.95;;;9.05;;
78844;SDS011;68195;50.854;2.860;2023-05-19T03:45:02;15.02;;;8.93;;
78844;SDS011;68195;50.854;2.860;2023-05-19T03:47:30;13.82;;;8.82;;
78844;SDS011;68195;50.854;2.860;2023-05-19T03:49:55;15.77;;;8.50;;
78844;SDS011;68195;50.854;2.860;2023-05-19T03:52:23;14.85;;;8.60;;
78844;SDS011;68195;50.854;2.860;2023-05-19T03:54:49;14.20;;;8.95;;
78844;SDS011;68195;50.854;2.860;2023-05-19T03:57:15;14.38;;;8.75;;
78844;SDS011;68195;50.854;2.860;2023-05-19T03:59:40;14.23;;;8.82;;
78844;SDS011;68195;50.854;2.860;2023-05-19T04:02:06;15.32;;;8.25;;
78844;SDS011;68195;50.854;2.860;2023-05-19T04:04:31;15.63;;;9.80;;
78844;SDS011;68195;50.854;2.860;2023-05-19T04:07:02;16.05;;;7.57;;
78844;SDS011;68195;50.854;2.860;2023-05-19T04:11:59;14.43;;;7.50;;
78844;SDS011;68195;50.854;2.860;2023-05-19T04:16:50;16.50;;;7.77;;
78844;SDS011;68195;50.854;2.860;2023-05-19T04:19:16;11.85;;;7.13;;
78844;SDS011;68195;50.854;2.860;2023-05-19T04:21:41;14.75;;;8.13;;
78844;SDS011;68195;50.854;2.860;2023-05-19T04:24:07;10.85;;;7.00;;
78844;SDS011;68195;50.854;2.860;2023-05-19T04:26:32;10.63;;;7.55;;
78844;SDS011;68195;50.854;2.860;2023-05-19T04:29:02;12.23;;;7.38;;
78844;SDS011;68195;50.854;2.860;2023-05-19T04:31:28;12.75;;;7.57;;
78844;SDS011;68195;50.854;2.860;2023-05-19T04:33:54;11.48;;;7.13;;
78844;SDS011;68195;50.854;2.860;2023-05-19T04:36:19;11.80;;;7.60;;
78844;SDS011;68195;50.854;2.860;2023-05-19T04:38:45;11.57;;;6.88;;
78844;SDS011;68195;50.854;2.860;2023-05-19T04:41:11;12.05;;;7.28;;
78844;SDS011;68195;50.854;2.860;2023-05-19T04:43:39;11.77;;;7.30;;
78844;SDS011;68195;50.854;2.860;2023-05-19T04:46:06;12.50;;;8.63;;
78844;SDS011;68195;50.854;2.860;2023-05-19T04:48:34;12.35;;;7.47;;
78844;SDS011;68195;50.854;2.860;2023-05-19T04:51:00;13.05;;;8.25;;
78844;SDS011;68195;50.854;2.860;2023-05-19T04:53:35;11.93;;;8.05;;
78844;SDS011;68195;50.854;2.860;2023-05-19T04:56:01;14.07;;;7.82;;
78844;SDS011;68195;50.854;2.860;2023-05-19T04:58:26;12.77;;;8.02;;
78844;SDS011;68195;50.854;2.860;2023-05-19T05:00:52;13.63;;;8.05;;
78844;SDS011;68195;50.854;2.860;2023-05-19T05:03:24;15.52;;;8.52;;
78844;SDS011;68195;50.854;2.860;2023-05-19T05:08:21;13.70;;;7.72;;
78844;SDS011;68195;50.854;2.860;2023-05-19T05:10:50;14.18;;;7.85;;
78844;SDS011;68195;50.854;2.860;2023-05-19T05:13:22;14.13;;;8.00;;
78844;SDS011;68195;50.854;2.860;2023-05-19T05:15:50;14.35;;;8.57;;
78844;SDS011;68195;50.854;2.860;2023-05-19T05:18:20;12.43;;;6.97;;
78844;SDS011;68195;50.854;2.860;2023-05-19T05:20:45;14.93;;;8.27;;
78844;SDS011;68195;50.854;2.860;2023-05-19T05:23:12;12.35;;;7.70;;
78844;SDS011;68195;50.854;2.860;2023-05-19T05:25:43;11.65;;;7.57;;
78844;SDS011;68195;50.854;2.860;2023-05-19T05:28:08;14.80;;;7.60;;
78844;SDS011;68195;50.854;2.860;2023-05-19T05:30:34;11.95;;;7.60;;
78844;SDS011;68195;50.854;2.860;2023-05-19T05:33:02;14.80;;;9.18;;
78844;SDS011;68195;50.854;2.860;2023-05-19T05:35:30;13.38;;;7.57;;
78844;SDS011;68195;50.854;2.860;2023-05-19T05:37:55;14.10;;;8.32;;
78844;SDS011;68195;50.854;2.860;2023-05-19T05:40:20;16.02;;;8.52;;
78844;SDS011;68195;50.854;2.860;2023-05-19T05:42:50;12.88;;;7.72;;
78844;SDS011;68195;50.854;2.860;2023-05-19T05:45:16;12.65;;;7.50;;
78844;SDS011;68195;50.854;2.860;2023-05-19T05:47:43;14.55;;;9.05;;
78844;SDS011;68195;50.854;2.860;2023-05-19T05:50:09;18.65;;;10.32;;
78844;SDS011;68195;50.854;2.860;2023-05-19T05:52:35;16.55;;;10.18;;
78844;SDS011;68195;50.854;2.860;2023-05-19T05:55:03;18.52;;;10.18;;
78844;SDS011;68195;50.854;2.860;2023-05-19T05:57:32;18.63;;;10.77;;
78844;SDS011;68195;50.854;2.860;2023-05-19T05:59:59;16.40;;;10.40;;
78844;SDS011;68195;50.854;2.860;2023-05-19T06:02:25;15.77;;;10.63;;
78844;SDS011;68195;50.854;2.860;2023-05-19T06:04:53;15.35;;;9.93;;
78844;SDS011;68195;50.854;2.860;2023-05-19T06:07:19;17.73;;;11.63;;
78844;SDS011;68195;50.854;2.860;2023-05-19T06:09:47;21.45;;;12.32;;
78844;SDS011;68195;50.854;2.860;2023-05-19T06:12:15;24.13;;;12.07;;
78844;SDS011;68195;50.854;2.860;2023-05-19T06:14:40;22.92;;;12.35;;
78844;SDS011;68195;50.854;2.860;2023-05-19T06:17:06;19.60;;;12.38;;
78844;SDS011;68195;50.854;2.860;2023-05-19T06:19:31;22.33;;;11.55;;
78844;SDS011;68195;50.854;2.860;2023-05-19T06:21:59;27.20;;;11.70;;
78844;SDS011;68195;50.854;2.860;2023-05-19T06:24:24;20.02;;;10.98;;
78844;SDS011;68195;50.854;2.860;2023-05-19T06:26:50;22.35;;;12.75;;
78844;SDS011;68195;50.854;2.860;2023-05-19T06:29:16;16.50;;;10.20;;
78844;SDS011;68195;50.854;2.860;2023-05-19T06:31:44;19.85;;;11.00;;
78844;SDS011;68195;50.854;2.860;2023-05-19T06:34:10;22.02;;;11.88;;
78844;SDS011;68195;50.854;2.860;2023-05-19T06:36:43;16.40;;;10.85;;
78844;SDS011;68195;50.854;2.860;2023-05-19T06:39:09;18.67;;;11.73;;
78844;SDS011;68195;50.854;2.860;2023-05-19T06:41:34;22.88;;;11.63;;
78844;SDS011;68195;50.854;2.860;2023-05-19T06:44:00;17.92;;;10.88;;
78844;SDS011;68195;50.854;2.860;2023-05-19T06:46:25;23.40;;;12.05;;
78844;SDS011;68195;50.854;2.860;2023-05-19T06:48:50;21.55;;;12.13;;
78844;SDS011;68195;50.854;2.860;2023-05-19T06:51:16;19.98;;;12.55;;
78844;SDS011;68195;50.854;2.860;2023-05-19T06:53:46;22.90;;;12.05;;
78844;SDS011;68195;50.854;2.860;2023-05-19T06:56:12;24.05;;;12.20;;
78844;SDS011;68195;50.854;2.860;2023-05-19T06:58:39;19.80;;;12.38;;
78844;SDS011;68195;50.854;2.860;2023-05-19T07:01:07;19.75;;;12.13;;
78844;SDS011;68195;50.854;2.860;2023-05-19T07:03:35;23.45;;;12.43;;
78844;SDS011;68195;50.854;2.860;2023-05-19T07:06:01;19.92;;;11.60;;
78844;SDS011;68195;50.854;2.860;2023-05-19T07:08:26;18.90;;;11.68;;
78844;SDS011;68195;50.854;2.860;2023-05-19T07:10:54;17.15;;;10.32;;
78844;SDS011;68195;50.854;2.860;2023-05-19T07:13:22;20.90;;;11.05;;
78844;SDS011;68195;50.854;2.860;2023-05-19T07:15:49;22.45;;;10.50;;
78844;SDS011;68195;50.854;2.860;2023-05-19T07:18:16;18.63;;;10.98;;
78844;SDS011;68195;50.854;2.860;2023-05-19T07:20:44;16.67;;;10.27;;
78844;SDS011;68195;50.854;2.860;2023-05-19T07:23:09;15.63;;;9.90;;
78844;SDS011;68195;50.854;2.860;2023-05-19T07:25:35;16.48;;;10.13;;
78844;SDS011;68195;50.854;2.860;2023-05-19T07:28:03;16.95;;;10.15;;
78844;SDS011;68195;50.854;2.860;2023-05-19T07:30:28;14.98;;;9.63;;
78844;SDS011;68195;50.854;2.860;2023-05-19T07:32:54;20.30;;;10.88;;
78844;SDS011;68195;50.854;2.860;2023-05-19T07:35:20;16.15;;;8.75;;
78844;SDS011;68195;50.854;2.860;2023-05-19T07:37:47;19.20;;;9.35;;
78844;SDS011;68195;50.854;2.860;2023-05-19T07:40:13;15.57;;;9.23;;
78844;SDS011;68195;50.854;2.860;2023-05-19T07:42:38;15.32;;;9.48;;
78844;SDS011;68195;50.854;2.860;2023-05-19T07:45:06;12.75;;;8.60;;
78844;SDS011;68195;50.854;2.860;2023-05-19T07:47:32;15.98;;;9.50;;
78844;SDS011;68195;50.854;2.860;2023-05-19T07:49:59;15.95;;;9.00;;
78844;SDS011;68195;50.854;2.860;2023-05-19T07:52:27;14.75;;;9.25;;
78844;SDS011;68195;50.854;2.860;2023-05-19T07:54:52;13.90;;;8.30;;
78844;SDS011;68195;50.854;2.860;2023-05-19T07:59:43;15.90;;;8.43;;
78844;SDS011;68195;50.854;2.860;2023-05-19T08:04:34;12.67;;;7.10;;
78844;SDS011;68195;50.854;2.860;2023-05-19T08:06:59;13.30;;;6.55;;
78844;SDS011;68195;50.854;2.860;2023-05-19T08:09:27;13.15;;;7.30;;
78844;SDS011;68195;50.854;2.860;2023-05-19T08:14:21;11.77;;;6.23;;
78844;SDS011;68195;50.854;2.860;2023-05-19T08:16:49;11.98;;;6.65;;
78844;SDS011;68195;50.854;2.860;2023-05-19T08:19:14;11.90;;;5.68;;
78844;SDS011;68195;50.854;2.860;2023-05-19T08:21:42;13.00;;;6.35;;
78844;SDS011;68195;50.854;2.860;2023-05-19T08:24:08;9.40;;;6.32;;
78844;SDS011;68195;50.854;2.860;2023-05-19T08:26:36;10.20;;;6.10;;
78844;SDS011;68195;50.854;2.860;2023-05-19T08:29:02;8.48;;;6.22;;
78844;SDS011;68195;50.854;2.860;2023-05-19T08:33:53;9.82;;;6.18;;
78844;SDS011;68195;50.854;2.860;2023-05-19T08:38:44;8.27;;;5.47;;
78844;SDS011;68195;50.854;2.860;2023-05-19T08:43:34;7.88;;;5.32;;
78844;SDS011;68195;50.854;2.860;2023-05-19T08:48:30;8.85;;;4.32;;
78844;SDS011;68195;50.854;2.860;2023-05-19T08:53:52;6.78;;;4.55;;
78844;SDS011;68195;50.854;2.860;2023-05-19T08:56:27;8.30;;;4.70;;
78844;SDS011;68195;50.854;2.860;2023-05-19T08:58:53;11.18;;;4.60;;
78844;SDS011;68195;50.854;2.860;2023-05-19T09:01:23;9.88;;;4.90;;
78844;SDS011;68195;50.854;2.860;2023-05-19T09:03:52;14.10;;;4.55;;
78844;SDS011;68195;50.854;2.860;2023-05-19T09:08:44;8.88;;;4.30;;
78844;SDS011;68195;50.854;2.860;2023-05-19T09:11:12;10.02;;;5.22;;
78844;SDS011;68195;50.854;2.860;2023-05-19T09:16:03;8.27;;;7.38;;
78844;SDS011;68195;50.854;2.860;2023-05-19T09:20:58;9.90;;;4.80;;
78844;SDS011;68195;50.854;2.860;2023-05-19T09:23:27;8.38;;;5.07;;
78844;SDS011;68195;50.854;2.860;2023-05-19T09:25:54;11.00;;;5.00;;
78844;SDS011;68195;50.854;2.860;2023-05-19T09:31:13;9.00;;;4.97;;
78844;SDS011;68195;50.854;2.860;2023-05-19T09:33:38;6.28;;;4.75;;
78844;SDS011;68195;50.854;2.860;2023-05-19T09:36:04;11.02;;;4.65;;
78844;SDS011;68195;50.854;2.860;2023-05-19T09:38:32;7.07;;;4.80;;
78844;SDS011;68195;50.854;2.860;2023-05-19T09:40:59;7.35;;;5.40;;
78844;SDS011;68195;50.854;2.860;2023-05-19T09:43:28;9.93;;;4.80;;
78844;SDS011;68195;50.854;2.860;2023-05-19T09:45:59;10.43;;;4.85;;
78844;SDS011;68195;50.854;2.860;2023-05-19T09:48:31;8.70;;;4.85;;
78844;SDS011;68195;50.854;2.860;2023-05-19T09:51:00;11.20;;;5.15;;
78844;SDS011;68195;50.854;2.860;2023-05-19T09:53:30;8.85;;;5.10;;
78844;SDS011;68195;50.854;2.860;2023-05-19T09:55:59;9.52;;;5.97;;
78844;SDS011;68195;50.854;2.860;2023-05-19T10:01:00;7.80;;;4.75;;
78844;SDS011;68195;50.854;2.860;2023-05-19T10:03:26;9.13;;;5.57;;
78844;SDS011;68195;50.854;2.860;2023-05-19T10:05:55;7.28;;;5.05;;
78844;SDS011;68195;50.854;2.860;2023-05-19T10:08:23;10.98;;;5.28;;
78844;SDS011;68195;50.854;2.860;2023-05-19T10:10:51;19.10;;;17.42;;
78844;SDS011;68195;50.854;2.860;2023-05-19T10:15:42;10.70;;;5.43;;
78844;SDS011;68195;50.854;2.860;2023-05-19T10:18:09;8.23;;;5.28;;
78844;SDS011;68195;50.854;2.860;2023-05-19T10:20:36;11.63;;;5.15;;
78844;SDS011;68195;50.854;2.860;2023-05-19T10:23:01;14.02;;;6.43;;
78844;SDS011;68195;50.854;2.860;2023-05-19T10:25:32;9.10;;;5.93;;
78844;SDS011;68195;50.854;2.860;2023-05-19T10:28:08;11.63;;;5.97;;
78844;SDS011;68195;50.854;2.860;2023-05-19T10:30:38;8.07;;;5.72;;
78844;SDS011;68195;50.854;2.860;2023-05-19T10:33:08;12.07;;;5.43;;
78844;SDS011;68195;50.854;2.860;2023-05-19T10:38:48;8.98;;;5.10;;
78844;SDS011;68195;50.854;2.860;2023-05-19T10:47:05;10.50;;;5.30;;
78844;SDS011;68195;50.854;2.860;2023-05-19T10:49:35;8.05;;;5.25;;
78844;SDS011;68195;50.854;2.860;2023-05-19T10:54:39;10.90;;;5.68;;
78844;SDS011;68195;50.854;2.860;2023-05-19T10:57:12;8.30;;;5.65;;
78844;SDS011;68195;50.854;2.860;2023-05-19T10:59:42;11.00;;;5.18;;
78844;SDS011;68195;50.854;2.860;2023-05-19T11:02:35;8.65;;;5.00;;
78844;SDS011;68195;50.854;2.860;2023-05-19T11:05:13;10.05;;;5.57;;
78844;SDS011;68195;50.854;2.860;2023-05-19T11:07:55;12.13;;;5.60;;
78844;SDS011;68195;50.854;2.860;2023-05-19T11:10:23;9.55;;;5.28;;
78844;SDS011;68195;50.854;2.860;2023-05-19T11:12:49;11.50;;;5.07;;
78844;SDS011;68195;50.854;2.860;2023-05-19T11:15:18;7.38;;;4.80;;
78844;SDS011;68195;50.854;2.860;2023-05-19T11:17:49;21.88;;;5.50;;
78844;SDS011;68195;50.854;2.860;2023-05-19T11:25:40;9.93;;;5.20;;
78844;SDS011;68195;50.854;2.860;2023-05-19T11:28:07;8.52;;;5.15;;
78844;SDS011;68195;50.854;2.860;2023-05-19T11:30:36;10.20;;;4.97;;
78844;SDS011;68195;50.854;2.860;2023-05-19T11:33:02;10.32;;;5.63;;
78844;SDS011;68195;50.854;2.860;2023-05-19T11:35:30;10.90;;;4.90;;
78844;SDS011;68195;50.854;2.860;2023-05-19T11:37:57;11.55;;;5.47;;
78844;SDS011;68195;50.854;2.860;2023-05-19T11:40:23;8.65;;;5.10;;
78844;SDS011;68195;50.854;2.860;2023-05-19T11:42:49;8.07;;;5.25;;
78844;SDS011;68195;50.854;2.860;2023-05-19T11:45:15;8.10;;;4.45;;
78844;SDS011;68195;50.854;2.860;2023-05-19T11:47:40;8.60;;;4.82;;
78844;SDS011;68195;50.854;2.860;2023-05-19T11:50:06;10.48;;;6.53;;
78844;SDS011;68195;50.854;2.860;2023-05-19T11:52:32;11.82;;;5.88;;
78844;SDS011;68195;50.854;2.860;2023-05-19T11:55:01;7.28;;;5.55;;
78844;SDS011;68195;50.854;2.860;2023-05-19T11:57:26;12.18;;;6.22;;
78844;SDS011;68195;50.854;2.860;2023-05-19T11:59:51;7.00;;;4.47;;
78844;SDS011;68195;50.854;2.860;2023-05-19T12:02:20;8.98;;;4.93;;
78844;SDS011;68195;50.854;2.860;2023-05-19T12:04:51;7.60;;;5.50;;
78844;SDS011;68195;50.854;2.860;2023-05-19T12:07:23;9.38;;;5.00;;
78844;SDS011;68195;50.854;2.860;2023-05-19T12:09:51;10.05;;;5.70;;
78844;SDS011;68195;50.854;2.860;2023-05-19T12:12:20;8.30;;;5.82;;
78844;SDS011;68195;50.854;2.860;2023-05-19T12:14:51;10.35;;;5.55;;
78844;SDS011;68195;50.854;2.860;2023-05-19T12:17:18;10.32;;;6.18;;
78844;SDS011;68195;50.854;2.860;2023-05-19T12:19:45;11.45;;;5.47;;
78844;SDS011;68195;50.854;2.860;2023-05-19T12:22:12;7.95;;;5.70;;
78844;SDS011;68195;50.854;2.860;2023-05-19T12:24:39;7.55;;;5.57;;
78844;SDS011;68195;50.854;2.860;2023-05-19T12:29:50;10.40;;;5.95;;
78844;SDS011;68195;50.854;2.860;2023-05-19T12:32:24;10.15;;;5.85;;
78844;SDS011;68195;50.854;2.860;2023-05-19T12:34:51;6.20;;;5.60;;
78844;SDS011;68195;50.854;2.860;2023-05-19T12:37:18;7.00;;;5.45;;
78844;SDS011;68195;50.854;2.860;2023-05-19T12:39:47;6.60;;;5.75;;
78844;SDS011;68195;50.854;2.860;2023-05-19T12:42:16;8.90;;;6.40;;
78844;SDS011;68195;50.854;2.860;2023-05-19T12:47:16;8.20;;;5.20;;
78844;SDS011;68195;50.854;2.860;2023-05-19T12:52:26;11.13;;;5.65;;
78844;SDS011;68195;50.854;2.860;2023-05-19T12:54:57;10.25;;;6.00;;
78844;SDS011;68195;50.854;2.860;2023-05-19T12:57:28;8.38;;;6.00;;
78844;SDS011;68195;50.854;2.860;2023-05-19T13:00:03;7.60;;;5.32;;
78844;SDS011;68195;50.854;2.860;2023-05-19T13:02:32;5.72;;;5.05;;
78844;SDS011;68195;50.854;2.860;2023-05-19T13:05:02;6.13;;;4.88;;
78844;SDS011;68195;50.854;2.860;2023-05-19T13:07:28;8.07;;;4.82;;
78844;SDS011;68195;50.854;2.860;2023-05-19T13:09:56;8.02;;;5.32;;
78844;SDS011;68195;50.854;2.860;2023-05-19T13:12:26;11.15;;;5.57;;
78844;SDS011;68195;50.854;2.860;2023-05-19T13:14:56;11.57;;;6.10;;
78844;SDS011;68195;50.854;2.860;2023-05-19T13:17:24;12.65;;;5.30;;
78844;SDS011;68195;50.854;2.860;2023-05-19T13:19:50;9.85;;;5.57;;
78844;SDS011;68195;50.854;2.860;2023-05-19T13:22:18;10.85;;;6.78;;
78844;SDS011;68195;50.854;2.860;2023-05-19T13:24:43;12.07;;;7.25;;
78844;SDS011;68195;50.854;2.860;2023-05-19T13:27:14;11.07;;;6.55;;
78844;SDS011;68195;50.854;2.860;2023-05-19T13:29:40;15.88;;;7.40;;
78844;SDS011;68195;50.854;2.860;2023-05-19T13:32:10;13.45;;;6.97;;
78844;SDS011;68195;50.854;2.860;2023-05-19T13:34:37;12.23;;;7.05;;
78844;SDS011;68195;50.854;2.860;2023-05-19T13:37:05;15.88;;;7.05;;
78844;SDS011;68195;50.854;2.860;2023-05-19T13:39:33;13.02;;;7.20;;
78844;SDS011;68195;50.854;2.860;2023-05-19T13:44:26;14.20;;;7.33;;
78844;SDS011;68195;50.854;2.860;2023-05-19T13:46:52;12.98;;;6.90;;
78844;SDS011;68195;50.854;2.860;2023-05-19T13:49:22;13.48;;;7.90;;
78844;SDS011;68195;50.854;2.860;2023-05-19T13:51:50;9.82;;;6.88;;
78844;SDS011;68195;50.854;2.860;2023-05-19T13:54:16;14.02;;;7.50;;
78844;SDS011;68195;50.854;2.860;2023-05-19T13:56:42;12.63;;;7.45;;
78844;SDS011;68195;50.854;2.860;2023-05-19T13:59:10;10.40;;;6.25;;
78844;SDS011;68195;50.854;2.860;2023-05-19T14:01:37;11.80;;;6.25;;
78844;SDS011;68195;50.854;2.860;2023-05-19T14:04:03;15.55;;;6.78;;
78844;SDS011;68195;50.854;2.860;2023-05-19T14:06:31;12.98;;;6.40;;
78844;SDS011;68195;50.854;2.860;2023-05-19T14:08:57;10.27;;;5.72;;
78844;SDS011;68195;50.854;2.860;2023-05-19T14:11:22;9.43;;;6.30;;
78844;SDS011;68195;50.854;2.860;2023-05-19T14:13:47;15.07;;;6.40;;
78844;SDS011;68195;50.854;2.860;2023-05-19T14:16:18;11.68;;;6.47;;
78844;SDS011;68195;50.854;2.860;2023-05-19T14:18:47;10.50;;;7.80;;
78844;SDS011;68195;50.854;2.860;2023-05-19T14:21:12;12.02;;;6.82;;
78844;SDS011;68195;50.854;2.860;2023-05-19T14:23:40;10.70;;;6.72;;
78844;SDS011;68195;50.854;2.860;2023-05-19T14:26:06;12.82;;;6.43;;
78844;SDS011;68195;50.854;2.860;2023-05-19T14:28:31;11.65;;;6.95;;
78844;SDS011;68195;50.854;2.860;2023-05-19T14:30:56;10.88;;;6.82;;
78844;SDS011;68195;50.854;2.860;2023-05-19T14:33:22;11.90;;;7.78;;
78844;SDS011;68195;50.854;2.860;2023-05-19T14:35:47;17.20;;;7.25;;
78844;SDS011;68195;50.854;2.860;2023-05-19T14:38:13;10.88;;;6.75;;
78844;SDS011;68195;50.854;2.860;2023-05-19T14:40:40;10.27;;;6.75;;
78844;SDS011;68195;50.854;2.860;2023-05-19T14:43:06;17.52;;;8.18;;
78844;SDS011;68195;50.854;2.860;2023-05-19T14:45:31;7.82;;;5.60;;
78844;SDS011;68195;50.854;2.860;2023-05-19T14:47:59;17.90;;;8.43;;
78844;SDS011;68195;50.854;2.860;2023-05-19T14:50:28;12.63;;;7.50;;
78844;SDS011;68195;50.854;2.860;2023-05-19T14:52:53;17.42;;;8.32;;
78844;SDS011;68195;50.854;2.860;2023-05-19T14:55:19;9.73;;;5.90;;
78844;SDS011;68195;50.854;2.860;2023-05-19T14:57:44;10.93;;;6.22;;
78844;SDS011;68195;50.854;2.860;2023-05-19T15:00:12;15.63;;;7.07;;
78844;SDS011;68195;50.854;2.860;2023-05-19T15:02:38;14.77;;;7.32;;
78844;SDS011;68195;50.854;2.860;2023-05-19T15:05:06;16.23;;;7.63;;
78844;SDS011;68195;50.854;2.860;2023-05-19T15:07:31;12.75;;;6.55;;
78844;SDS011;68195;50.854;2.860;2023-05-19T15:09:57;12.60;;;6.45;;
78844;SDS011;68195;50.854;2.860;2023-05-19T15:12:22;13.48;;;7.68;;
78844;SDS011;68195;50.854;2.860;2023-05-19T15:14:48;15.27;;;6.38;;
78844;SDS011;68195;50.854;2.860;2023-05-19T15:17:13;14.82;;;6.65;;
78844;SDS011;68195;50.854;2.860;2023-05-19T15:19:38;7.10;;;5.57;;
78844;SDS011;68195;50.854;2.860;2023-05-19T15:22:06;12.60;;;6.50;;
78844;SDS011;68195;50.854;2.860;2023-05-19T15:24:32;12.52;;;5.72;;
78844;SDS011;68195;50.854;2.860;2023-05-19T15:26:57;9.25;;;7.47;;
78844;SDS011;68195;50.854;2.860;2023-05-19T15:29:23;10.68;;;7.28;;
78844;SDS011;68195;50.854;2.860;2023-05-19T15:31:49;12.98;;;6.13;;
78844;SDS011;68195;50.854;2.860;2023-05-19T15:34:18;11.40;;;6.70;;
78844;SDS011;68195;50.854;2.860;2023-05-19T15:36:44;12.63;;;6.65;;
78844;SDS011;68195;50.854;2.860;2023-05-19T15:39:10;12.02;;;6.43;;
78844;SDS011;68195;50.854;2.860;2023-05-19T15:41:36;10.07;;;6.63;;
78844;SDS011;68195;50.854;2.860;2023-05-19T15:44:01;13.55;;;5.72;;
78844;SDS011;68195;50.854;2.860;2023-05-19T15:46:27;9.65;;;5.97;;
78844;SDS011;68195;50.854;2.860;2023-05-19T15:48:53;15.15;;;6.72;;
78844;SDS011;68195;50.854;2.860;2023-05-19T15:51:23;13.88;;;5.95;;
78844;SDS011;68195;50.854;2.860;2023-05-19T15:53:49;12.60;;;5.93;;
78844;SDS011;68195;50.854;2.860;2023-05-19T15:56:14;13.18;;;6.75;;
78844;SDS011;68195;50.854;2.860;2023-05-19T15:58:40;12.10;;;5.88;;
78844;SDS011;68195;50.854;2.860;2023-05-19T16:01:05;14.55;;;5.78;;
78844;SDS011;68195;50.854;2.860;2023-05-19T16:03:31;10.80;;;5.55;;
78844;SDS011;68195;50.854;2.860;2023-05-19T16:05:57;11.82;;;5.22;;
78844;SDS011;68195;50.854;2.860;2023-05-19T16:08:22;9.30;;;5.75;;
78844;SDS011;68195;50.854;2.860;2023-05-19T16:10:48;13.52;;;6.45;;
78844;SDS011;68195;50.854;2.860;2023-05-19T16:13:17;11.45;;;6.03;;